sensor_id;sensor_type;location;lat;lon;timestamp;temperature;humidity
69598;SHT31;70000;51.176;-115.568;2023-10-31T00:02:10;1.82;51.11
69598;SHT31;70000;51.176;-115.568;2023-10-31T00:04:41;1.78;51.27
69598;SHT31;70000;51.176;-115.568;2023-10-31T00:07:11;1.73;51.55
69598;SHT31;70000;51.176;-115.568;2023-10-31T00:09:40;1.68;51.70
69598;SHT31;70000;51.176;-115.568;2023-10-31T00:12:09;1.65;51.80
69598;SHT31;70000;51.176;-115.568;2023-10-31T00:14:39;1.60;51.96
69598;SHT31;70000;51.176;-115.568;2023-10-31T00:17:08;1.54;51.91
69598;SHT31;70000;51.176;-115.568;2023-10-31T00:23:05;1.44;52.10
69598;SHT31;70000;51.176;-115.568;2023-10-31T00:25:34;1.44;52.47
69598;SHT31;70000;51.176;-115.568;2023-10-31T00:28:02;1.42;52.32
69598;SHT31;70000;51.176;-115.568;2023-10-31T00:30:31;1.41;52.56
69598;SHT31;70000;51.176;-115.568;2023-10-31T00:33:00;1.41;52.32
69598;SHT31;70000;51.176;-115.568;2023-10-31T00:35:29;1.41;52.22
69598;SHT31;70000;51.176;-115.568;2023-10-31T00:37:57;1.41;52.24
69598;SHT31;70000;51.176;-115.568;2023-10-31T00:40:26;1.39;51.97
69598;SHT31;70000;51.176;-115.568;2023-10-31T00:42:54;1.37;52.12
69598;SHT31;70000;51.176;-115.568;2023-10-31T00:45:25;1.35;52.15
69598;SHT31;70000;51.176;-115.568;2023-10-31T00:47:54;1.36;51.93
69598;SHT31;70000;51.176;-115.568;2023-10-31T00:50:23;1.35;51.78
69598;SHT31;70000;51.176;-115.568;2023-10-31T00:52:55;1.34;51.75
69598;SHT31;70000;51.176;-115.568;2023-10-31T00:55:25;1.32;51.76
69598;SHT31;70000;51.176;-115.568;2023-10-31T00:57:54;1.30;51.90
69598;SHT31;70000;51.176;-115.568;2023-10-31T01:00:22;1.29;51.73
69598;SHT31;70000;51.176;-115.568;2023-10-31T01:02:55;1.26;51.99
69598;SHT31;70000;51.176;-115.568;2023-10-31T01:05:24;1.22;51.76
69598;SHT31;70000;51.176;-115.568;2023-10-31T01:07:53;1.17;51.78
69598;SHT31;70000;51.176;-115.568;2023-10-31T01:10:24;1.11;51.86
69598;SHT31;70000;51.176;-115.568;2023-10-31T01:12:55;1.08;51.96
69598;SHT31;70000;51.176;-115.568;2023-10-31T01:15:24;1.04;52.03
69598;SHT31;70000;51.176;-115.568;2023-10-31T01:17:53;1.00;52.38
69598;SHT31;70000;51.176;-115.568;2023-10-31T01:20:21;0.95;52.37
69598;SHT31;70000;51.176;-115.568;2023-10-31T01:22:50;0.91;52.63
69598;SHT31;70000;51.176;-115.568;2023-10-31T01:25:19;0.89;52.80
69598;SHT31;70000;51.176;-115.568;2023-10-31T01:27:47;0.86;52.45
69598;SHT31;70000;51.176;-115.568;2023-10-31T01:30:16;0.82;52.39
69598;SHT31;70000;51.176;-115.568;2023-10-31T01:32:45;0.79;52.40
69598;SHT31;70000;51.176;-115.568;2023-10-31T01:35:13;0.77;52.55
69598;SHT31;70000;51.176;-115.568;2023-10-31T01:37:42;0.76;52.87
69598;SHT31;70000;51.176;-115.568;2023-10-31T01:40:31;0.75;52.97
69598;SHT31;70000;51.176;-115.568;2023-10-31T01:43:00;0.72;53.26
69598;SHT31;70000;51.176;-115.568;2023-10-31T01:45:29;0.70;53.26
69598;SHT31;70000;51.176;-115.568;2023-10-31T01:47:58;0.70;53.40
69598;SHT31;70000;51.176;-115.568;2023-10-31T01:50:28;0.68;53.05
69598;SHT31;70000;51.176;-115.568;2023-10-31T01:53:00;0.66;53.20
69598;SHT31;70000;51.176;-115.568;2023-10-31T01:55:29;0.64;53.15
69598;SHT31;70000;51.176;-115.568;2023-10-31T01:57:58;0.60;53.20
69598;SHT31;70000;51.176;-115.568;2023-10-31T02:00:28;0.57;53.70
69598;SHT31;70000;51.176;-115.568;2023-10-31T02:02:59;0.54;53.29
69598;SHT31;70000;51.176;-115.568;2023-10-31T02:05:29;0.54;52.99
69598;SHT31;70000;51.176;-115.568;2023-10-31T02:08:00;0.54;52.91
69598;SHT31;70000;51.176;-115.568;2023-10-31T02:10:36;0.53;52.74
69598;SHT31;70000;51.176;-115.568;2023-10-31T02:13:15;0.51;52.80
69598;SHT31;70000;51.176;-115.568;2023-10-31T02:15:46;0.50;53.17
69598;SHT31;70000;51.176;-115.568;2023-10-31T02:18:16;0.45;53.29
69598;SHT31;70000;51.176;-115.568;2023-10-31T02:20:45;0.40;53.49
69598;SHT31;70000;51.176;-115.568;2023-10-31T02:23:16;0.38;53.60
69598;SHT31;70000;51.176;-115.568;2023-10-31T02:25:45;0.34;53.77
69598;SHT31;70000;51.176;-115.568;2023-10-31T02:28:14;0.32;53.87
69598;SHT31;70000;51.176;-115.568;2023-10-31T02:30:43;0.32;53.95
69598;SHT31;70000;51.176;-115.568;2023-10-31T02:33:12;0.32;54.16
69598;SHT31;70000;51.176;-115.568;2023-10-31T02:35:41;0.32;54.17
69598;SHT31;70000;51.176;-115.568;2023-10-31T02:38:11;0.32;54.11
69598;SHT31;70000;51.176;-115.568;2023-10-31T02:40:41;0.33;53.91
69598;SHT31;70000;51.176;-115.568;2023-10-31T02:43:10;0.33;53.77
69598;SHT31;70000;51.176;-115.568;2023-10-31T02:45:39;0.31;53.80
69598;SHT31;70000;51.176;-115.568;2023-10-31T02:48:09;0.26;53.86
69598;SHT31;70000;51.176;-115.568;2023-10-31T02:50:38;0.23;54.04
69598;SHT31;70000;51.176;-115.568;2023-10-31T02:53:07;0.22;54.29
69598;SHT31;70000;51.176;-115.568;2023-10-31T02:55:38;0.19;54.56
69598;SHT31;70000;51.176;-115.568;2023-10-31T02:58:07;0.16;54.45
69598;SHT31;70000;51.176;-115.568;2023-10-31T03:00:37;0.14;54.47
69598;SHT31;70000;51.176;-115.568;2023-10-31T03:03:09;0.10;54.41
69598;SHT31;70000;51.176;-115.568;2023-10-31T03:05:38;0.06;54.51
69598;SHT31;70000;51.176;-115.568;2023-10-31T03:08:08;0.02;54.53
69598;SHT31;70000;51.176;-115.568;2023-10-31T03:10:41;-0.04;54.50
69598;SHT31;70000;51.176;-115.568;2023-10-31T03:13:10;-0.08;54.49
69598;SHT31;70000;51.176;-115.568;2023-10-31T03:15:39;-0.11;54.37
69598;SHT31;70000;51.176;-115.568;2023-10-31T03:18:09;-0.11;54.46
69598;SHT31;70000;51.176;-115.568;2023-10-31T03:20:38;-0.14;54.64
69598;SHT31;70000;51.176;-115.568;2023-10-31T03:23:07;-0.15;54.61
69598;SHT31;70000;51.176;-115.568;2023-10-31T03:25:36;-0.15;54.71
69598;SHT31;70000;51.176;-115.568;2023-10-31T03:28:08;-0.17;55.08
69598;SHT31;70000;51.176;-115.568;2023-10-31T03:30:52;-0.21;55.39
69598;SHT31;70000;51.176;-115.568;2023-10-31T03:33:25;-0.26;55.69
69598;SHT31;70000;51.176;-115.568;2023-10-31T03:35:54;-0.29;55.87
69598;SHT31;70000;51.176;-115.568;2023-10-31T03:38:23;-0.28;55.82
69598;SHT31;70000;51.176;-115.568;2023-10-31T03:40:52;-0.25;55.31
69598;SHT31;70000;51.176;-115.568;2023-10-31T03:43:22;-0.21;55.01
69598;SHT31;70000;51.176;-115.568;2023-10-31T03:48:59;-0.13;54.81
69598;SHT31;70000;51.176;-115.568;2023-10-31T03:51:28;-0.12;54.96
69598;SHT31;70000;51.176;-115.568;2023-10-31T03:53:58;-0.13;55.19
69598;SHT31;70000;51.176;-115.568;2023-10-31T03:56:29;-0.12;55.33
69598;SHT31;70000;51.176;-115.568;2023-10-31T03:58:58;-0.15;55.80
69598;SHT31;70000;51.176;-115.568;2023-10-31T04:01:30;-0.16;55.39
69598;SHT31;70000;51.176;-115.568;2023-10-31T04:03:59;-0.18;55.32
69598;SHT31;70000;51.176;-115.568;2023-10-31T04:06:28;-0.20;55.42
69598;SHT31;70000;51.176;-115.568;2023-10-31T04:08:58;-0.20;54.97
69598;SHT31;70000;51.176;-115.568;2023-10-31T04:11:27;-0.22;54.99
69598;SHT31;70000;51.176;-115.568;2023-10-31T04:13:58;-0.22;54.80
69598;SHT31;70000;51.176;-115.568;2023-10-31T04:16:27;-0.24;54.58
69598;SHT31;70000;51.176;-115.568;2023-10-31T04:18:59;-0.26;54.69
69598;SHT31;70000;51.176;-115.568;2023-10-31T04:21:28;-0.32;54.96
69598;SHT31;70000;51.176;-115.568;2023-10-31T04:23:58;-0.36;55.31
69598;SHT31;70000;51.176;-115.568;2023-10-31T04:26:28;-0.39;55.57
69598;SHT31;70000;51.176;-115.568;2023-10-31T04:28:57;-0.43;55.67
69598;SHT31;70000;51.176;-115.568;2023-10-31T04:31:27;-0.48;55.84
69598;SHT31;70000;51.176;-115.568;2023-10-31T04:34:07;-0.50;55.69
69598;SHT31;70000;51.176;-115.568;2023-10-31T04:36:37;-0.50;55.43
69598;SHT31;70000;51.176;-115.568;2023-10-31T04:39:06;-0.50;55.67
69598;SHT31;70000;51.176;-115.568;2023-10-31T04:41:35;-0.50;55.51
69598;SHT31;70000;51.176;-115.568;2023-10-31T04:47:13;-0.52;55.58
69598;SHT31;70000;51.176;-115.568;2023-10-31T04:49:44;-0.52;55.65
69598;SHT31;70000;51.176;-115.568;2023-10-31T04:52:13;-0.55;55.60
69598;SHT31;70000;51.176;-115.568;2023-10-31T04:54:42;-0.60;55.74
69598;SHT31;70000;51.176;-115.568;2023-10-31T04:57:11;-0.64;56.04
69598;SHT31;70000;51.176;-115.568;2023-10-31T04:59:41;-0.64;56.09
69598;SHT31;70000;51.176;-115.568;2023-10-31T05:02:10;-0.67;56.07
69598;SHT31;70000;51.176;-115.568;2023-10-31T05:04:40;-0.69;56.30
69598;SHT31;70000;51.176;-115.568;2023-10-31T05:07:09;-0.69;56.43
69598;SHT31;70000;51.176;-115.568;2023-10-31T05:09:40;-0.73;56.51
69598;SHT31;70000;51.176;-115.568;2023-10-31T05:12:12;-0.71;56.48
69598;SHT31;70000;51.176;-115.568;2023-10-31T05:14:42;-0.68;56.36
69598;SHT31;70000;51.176;-115.568;2023-10-31T05:17:11;-0.67;56.32
69598;SHT31;70000;51.176;-115.568;2023-10-31T05:19:40;-0.65;56.18
69598;SHT31;70000;51.176;-115.568;2023-10-31T05:22:09;-0.64;56.05
69598;SHT31;70000;51.176;-115.568;2023-10-31T05:24:38;-0.60;55.89
69598;SHT31;70000;51.176;-115.568;2023-10-31T05:27:07;-0.58;55.98
69598;SHT31;70000;51.176;-115.568;2023-10-31T05:29:41;-0.63;55.93
69598;SHT31;70000;51.176;-115.568;2023-10-31T05:32:10;-0.66;55.93
69598;SHT31;70000;51.176;-115.568;2023-10-31T05:34:39;-0.72;56.05
69598;SHT31;70000;51.176;-115.568;2023-10-31T05:37:10;-0.78;56.16
69598;SHT31;70000;51.176;-115.568;2023-10-31T05:39:39;-0.86;56.45
69598;SHT31;70000;51.176;-115.568;2023-10-31T05:42:08;-0.94;56.63
69598;SHT31;70000;51.176;-115.568;2023-10-31T05:44:37;-1.01;56.83
69598;SHT31;70000;51.176;-115.568;2023-10-31T05:47:07;-1.08;57.04
69598;SHT31;70000;51.176;-115.568;2023-10-31T05:49:37;-1.14;57.10
69598;SHT31;70000;51.176;-115.568;2023-10-31T05:52:06;-1.16;57.17
69598;SHT31;70000;51.176;-115.568;2023-10-31T05:54:36;-1.21;57.21
69598;SHT31;70000;51.176;-115.568;2023-10-31T05:57:06;-1.23;57.19
69598;SHT31;70000;51.176;-115.568;2023-10-31T05:59:35;-1.22;57.04
69598;SHT31;70000;51.176;-115.568;2023-10-31T06:02:04;-1.23;57.09
69598;SHT31;70000;51.176;-115.568;2023-10-31T06:04:34;-1.27;57.14
69598;SHT31;70000;51.176;-115.568;2023-10-31T06:07:03;-1.30;57.35
69598;SHT31;70000;51.176;-115.568;2023-10-31T06:09:33;-1.35;57.42
69598;SHT31;70000;51.176;-115.568;2023-10-31T06:12:03;-1.41;57.64
69598;SHT31;70000;51.176;-115.568;2023-10-31T06:14:33;-1.47;57.86
69598;SHT31;70000;51.176;-115.568;2023-10-31T06:17:02;-1.54;58.05
69598;SHT31;70000;51.176;-115.568;2023-10-31T06:19:35;-1.63;58.32
69598;SHT31;70000;51.176;-115.568;2023-10-31T06:22:06;-1.70;58.51
69598;SHT31;70000;51.176;-115.568;2023-10-31T06:24:35;-1.78;58.75
69598;SHT31;70000;51.176;-115.568;2023-10-31T06:27:04;-1.82;58.92
69598;SHT31;70000;51.176;-115.568;2023-10-31T06:29:34;-1.87;59.10
69598;SHT31;70000;51.176;-115.568;2023-10-31T06:32:23;-1.90;59.27
69598;SHT31;70000;51.176;-115.568;2023-10-31T06:34:52;-1.90;59.23
69598;SHT31;70000;51.176;-115.568;2023-10-31T06:37:21;-1.90;59.30
69598;SHT31;70000;51.176;-115.568;2023-10-31T06:39:50;-1.90;59.20
69598;SHT31;70000;51.176;-115.568;2023-10-31T06:42:20;-1.91;59.20
69598;SHT31;70000;51.176;-115.568;2023-10-31T06:44:49;-1.92;59.51
69598;SHT31;70000;51.176;-115.568;2023-10-31T06:47:20;-1.95;59.58
69598;SHT31;70000;51.176;-115.568;2023-10-31T06:49:50;-1.98;59.56
69598;SHT31;70000;51.176;-115.568;2023-10-31T06:52:20;-2.01;59.68
69598;SHT31;70000;51.176;-115.568;2023-10-31T06:54:49;-2.04;59.78
69598;SHT31;70000;51.176;-115.568;2023-10-31T06:57:18;-2.07;59.85
69598;SHT31;70000;51.176;-115.568;2023-10-31T06:59:47;-2.08;59.89
69598;SHT31;70000;51.176;-115.568;2023-10-31T07:02:16;-2.10;59.96
69598;SHT31;70000;51.176;-115.568;2023-10-31T07:07:56;-2.15;60.15
69598;SHT31;70000;51.176;-115.568;2023-10-31T07:10:26;-2.18;60.23
69598;SHT31;70000;51.176;-115.568;2023-10-31T07:12:55;-2.20;60.27
69598;SHT31;70000;51.176;-115.568;2023-10-31T07:15:26;-2.21;60.33
69598;SHT31;70000;51.176;-115.568;2023-10-31T07:17:55;-2.23;60.48
69598;SHT31;70000;51.176;-115.568;2023-10-31T07:20:24;-2.25;60.61
69598;SHT31;70000;51.176;-115.568;2023-10-31T07:22:53;-2.28;60.68
69598;SHT31;70000;51.176;-115.568;2023-10-31T07:25:22;-2.30;60.76
69598;SHT31;70000;51.176;-115.568;2023-10-31T07:27:51;-2.33;60.79
69598;SHT31;70000;51.176;-115.568;2023-10-31T07:30:20;-2.37;60.80
69598;SHT31;70000;51.176;-115.568;2023-10-31T07:32:49;-2.37;60.83
69598;SHT31;70000;51.176;-115.568;2023-10-31T07:35:19;-2.38;61.00
69598;SHT31;70000;51.176;-115.568;2023-10-31T07:37:49;-2.39;61.20
69598;SHT31;70000;51.176;-115.568;2023-10-31T07:43:27;-2.42;61.05
69598;SHT31;70000;51.176;-115.568;2023-10-31T07:45:56;-2.43;61.22
69598;SHT31;70000;51.176;-115.568;2023-10-31T07:48:25;-2.44;61.28
69598;SHT31;70000;51.176;-115.568;2023-10-31T07:50:54;-2.45;61.19
69598;SHT31;70000;51.176;-115.568;2023-10-31T07:53:27;-2.45;61.09
69598;SHT31;70000;51.176;-115.568;2023-10-31T07:55:56;-2.45;61.11
69598;SHT31;70000;51.176;-115.568;2023-10-31T07:58:25;-2.44;61.08
69598;SHT31;70000;51.176;-115.568;2023-10-31T08:00:54;-2.46;61.17
69598;SHT31;70000;51.176;-115.568;2023-10-31T08:03:24;-2.46;61.23
69598;SHT31;70000;51.176;-115.568;2023-10-31T08:05:53;-2.47;61.23
69598;SHT31;70000;51.176;-115.568;2023-10-31T08:08:23;-2.48;61.30
69598;SHT31;70000;51.176;-115.568;2023-10-31T08:10:52;-2.50;61.37
69598;SHT31;70000;51.176;-115.568;2023-10-31T08:13:21;-2.54;61.44
69598;SHT31;70000;51.176;-115.568;2023-10-31T08:15:51;-2.58;61.58
69598;SHT31;70000;51.176;-115.568;2023-10-31T08:18:19;-2.61;61.61
69598;SHT31;70000;51.176;-115.568;2023-10-31T08:20:52;-2.64;61.63
69598;SHT31;70000;51.176;-115.568;2023-10-31T08:23:21;-2.66;61.61
69598;SHT31;70000;51.176;-115.568;2023-10-31T08:25:50;-2.72;61.67
69598;SHT31;70000;51.176;-115.568;2023-10-31T08:28:19;-2.78;61.82
69598;SHT31;70000;51.176;-115.568;2023-10-31T08:30:48;-2.81;62.00
69598;SHT31;70000;51.176;-115.568;2023-10-31T08:33:17;-2.84;62.00
69598;SHT31;70000;51.176;-115.568;2023-10-31T08:35:46;-2.88;62.06
69598;SHT31;70000;51.176;-115.568;2023-10-31T08:38:16;-2.92;62.21
69598;SHT31;70000;51.176;-115.568;2023-10-31T08:40:58;-2.95;62.27
69598;SHT31;70000;51.176;-115.568;2023-10-31T08:43:27;-2.95;62.27
69598;SHT31;70000;51.176;-115.568;2023-10-31T08:45:57;-2.97;62.35
69598;SHT31;70000;51.176;-115.568;2023-10-31T08:48:26;-2.98;62.37
69598;SHT31;70000;51.176;-115.568;2023-10-31T08:50:55;-2.98;62.42
69598;SHT31;70000;51.176;-115.568;2023-10-31T08:53:25;-3.01;62.48
69598;SHT31;70000;51.176;-115.568;2023-10-31T08:55:55;-3.02;62.53
69598;SHT31;70000;51.176;-115.568;2023-10-31T08:58:24;-3.02;62.58
69598;SHT31;70000;51.176;-115.568;2023-10-31T09:00:53;-3.02;62.60
69598;SHT31;70000;51.176;-115.568;2023-10-31T09:03:24;-3.00;62.63
69598;SHT31;70000;51.176;-115.568;2023-10-31T09:05:53;-3.00;62.63
69598;SHT31;70000;51.176;-115.568;2023-10-31T09:08:22;-3.00;62.72
69598;SHT31;70000;51.176;-115.568;2023-10-31T09:10:51;-2.97;62.69
69598;SHT31;70000;51.176;-115.568;2023-10-31T09:13:21;-2.97;62.70
69598;SHT31;70000;51.176;-115.568;2023-10-31T09:15:50;-2.99;62.59
69598;SHT31;70000;51.176;-115.568;2023-10-31T09:18:21;-3.02;62.69
69598;SHT31;70000;51.176;-115.568;2023-10-31T09:20:50;-3.04;62.58
69598;SHT31;70000;51.176;-115.568;2023-10-31T09:23:19;-3.06;62.60
69598;SHT31;70000;51.176;-115.568;2023-10-31T09:25:49;-3.05;62.68
69598;SHT31;70000;51.176;-115.568;2023-10-31T09:28:18;-3.09;62.51
69598;SHT31;70000;51.176;-115.568;2023-10-31T09:30:47;-3.13;62.68
69598;SHT31;70000;51.176;-115.568;2023-10-31T09:36:44;-3.17;62.88
69598;SHT31;70000;51.176;-115.568;2023-10-31T09:39:12;-3.17;62.82
69598;SHT31;70000;51.176;-115.568;2023-10-31T09:41:41;-3.21;62.86
69598;SHT31;70000;51.176;-115.568;2023-10-31T09:44:11;-3.24;62.84
69598;SHT31;70000;51.176;-115.568;2023-10-31T09:46:41;-3.28;62.94
69598;SHT31;70000;51.176;-115.568;2023-10-31T09:49:10;-3.34;63.00
69598;SHT31;70000;51.176;-115.568;2023-10-31T09:51:38;-3.40;63.14
69598;SHT31;70000;51.176;-115.568;2023-10-31T09:54:08;-3.44;63.24
69598;SHT31;70000;51.176;-115.568;2023-10-31T09:56:40;-3.46;63.37
69598;SHT31;70000;51.176;-115.568;2023-10-31T09:59:09;-3.47;63.37
69598;SHT31;70000;51.176;-115.568;2023-10-31T10:01:38;-3.52;63.40
69598;SHT31;70000;51.176;-115.568;2023-10-31T10:04:06;-3.58;63.49
69598;SHT31;70000;51.176;-115.568;2023-10-31T10:06:35;-3.63;63.50
69598;SHT31;70000;51.176;-115.568;2023-10-31T10:09:18;-3.68;63.65
69598;SHT31;70000;51.176;-115.568;2023-10-31T10:11:47;-3.72;63.83
69598;SHT31;70000;51.176;-115.568;2023-10-31T10:14:16;-3.74;63.95
69598;SHT31;70000;51.176;-115.568;2023-10-31T10:16:44;-3.78;64.02
69598;SHT31;70000;51.176;-115.568;2023-10-31T10:19:17;-3.81;64.00
69598;SHT31;70000;51.176;-115.568;2023-10-31T10:21:48;-3.82;64.10
69598;SHT31;70000;51.176;-115.568;2023-10-31T10:24:20;-3.82;64.14
69598;SHT31;70000;51.176;-115.568;2023-10-31T10:26:51;-3.84;64.11
69598;SHT31;70000;51.176;-115.568;2023-10-31T10:29:19;-3.89;64.16
69598;SHT31;70000;51.176;-115.568;2023-10-31T10:31:48;-3.92;64.20
69598;SHT31;70000;51.176;-115.568;2023-10-31T10:34:19;-3.96;64.18
69598;SHT31;70000;51.176;-115.568;2023-10-31T10:36:51;-3.99;64.28
69598;SHT31;70000;51.176;-115.568;2023-10-31T10:39:24;-4.02;64.26
69598;SHT31;70000;51.176;-115.568;2023-10-31T10:45:06;-4.03;64.26
69598;SHT31;70000;51.176;-115.568;2023-10-31T10:47:41;-4.03;64.25
69598;SHT31;70000;51.176;-115.568;2023-10-31T10:50:18;-4.08;64.24
69598;SHT31;70000;51.176;-115.568;2023-10-31T10:53:00;-4.09;64.39
69598;SHT31;70000;51.176;-115.568;2023-10-31T10:56:01;-4.10;64.40
69598;SHT31;70000;51.176;-115.568;2023-10-31T11:01:49;-4.20;64.55
69598;SHT31;70000;51.176;-115.568;2023-10-31T11:04:19;-4.24;64.70
69598;SHT31;70000;51.176;-115.568;2023-10-31T11:06:49;-4.28;64.70
69598;SHT31;70000;51.176;-115.568;2023-10-31T11:09:18;-4.30;64.74
69598;SHT31;70000;51.176;-115.568;2023-10-31T11:15:20;-4.42;64.77
69598;SHT31;70000;51.176;-115.568;2023-10-31T11:17:51;-4.49;65.01
69598;SHT31;70000;51.176;-115.568;2023-10-31T11:20:22;-4.48;65.12
69598;SHT31;70000;51.176;-115.568;2023-10-31T11:22:54;-4.47;65.11
69598;SHT31;70000;51.176;-115.568;2023-10-31T11:25:32;-4.51;65.03
69598;SHT31;70000;51.176;-115.568;2023-10-31T11:28:17;-4.56;65.14
69598;SHT31;70000;51.176;-115.568;2023-10-31T11:30:49;-4.58;65.26
69598;SHT31;70000;51.176;-115.568;2023-10-31T11:33:24;-4.64;65.22
69598;SHT31;70000;51.176;-115.568;2023-10-31T11:36:00;-4.72;65.33
69598;SHT31;70000;51.176;-115.568;2023-10-31T11:41:39;-4.78;65.70
69598;SHT31;70000;51.176;-115.568;2023-10-31T11:44:08;-4.80;65.84
69598;SHT31;70000;51.176;-115.568;2023-10-31T11:46:38;-4.78;65.90
69598;SHT31;70000;51.176;-115.568;2023-10-31T11:49:08;-4.75;65.98
69598;SHT31;70000;51.176;-115.568;2023-10-31T11:51:40;-4.75;65.95
69598;SHT31;70000;51.176;-115.568;2023-10-31T11:54:14;-4.74;66.04
69598;SHT31;70000;51.176;-115.568;2023-10-31T11:56:50;-4.74;66.03
69598;SHT31;70000;51.176;-115.568;2023-10-31T11:59:20;-4.73;66.10
69598;SHT31;70000;51.176;-115.568;2023-10-31T12:01:49;-4.68;66.01
69598;SHT31;70000;51.176;-115.568;2023-10-31T12:04:22;-4.65;65.96
69598;SHT31;70000;51.176;-115.568;2023-10-31T12:06:58;-4.66;65.95
69598;SHT31;70000;51.176;-115.568;2023-10-31T12:09:28;-4.65;65.98
69598;SHT31;70000;51.176;-115.568;2023-10-31T12:11:59;-4.61;65.92
69598;SHT31;70000;51.176;-115.568;2023-10-31T12:14:32;-4.58;65.89
69598;SHT31;70000;51.176;-115.568;2023-10-31T12:17:04;-4.57;65.83
69598;SHT31;70000;51.176;-115.568;2023-10-31T12:19:37;-4.59;65.75
69598;SHT31;70000;51.176;-115.568;2023-10-31T12:22:13;-4.60;65.90
69598;SHT31;70000;51.176;-115.568;2023-10-31T12:24:43;-4.59;65.90
69598;SHT31;70000;51.176;-115.568;2023-10-31T12:27:14;-4.57;65.81
69598;SHT31;70000;51.176;-115.568;2023-10-31T12:29:43;-4.57;65.75
69598;SHT31;70000;51.176;-115.568;2023-10-31T12:32:12;-4.55;65.70
69598;SHT31;70000;51.176;-115.568;2023-10-31T12:34:43;-4.58;65.81
69598;SHT31;70000;51.176;-115.568;2023-10-31T12:37:17;-4.57;65.78
69598;SHT31;70000;51.176;-115.568;2023-10-31T12:40:06;-4.55;65.68
69598;SHT31;70000;51.176;-115.568;2023-10-31T12:42:37;-4.57;65.62
69598;SHT31;70000;51.176;-115.568;2023-10-31T12:45:07;-4.60;65.73
69598;SHT31;70000;51.176;-115.568;2023-10-31T12:47:37;-4.60;65.65
69598;SHT31;70000;51.176;-115.568;2023-10-31T12:50:08;-4.61;65.60
69598;SHT31;70000;51.176;-115.568;2023-10-31T12:52:50;-4.64;65.53
69598;SHT31;70000;51.176;-115.568;2023-10-31T12:55:22;-4.71;65.56
69598;SHT31;70000;51.176;-115.568;2023-10-31T12:57:55;-4.82;65.75
69598;SHT31;70000;51.176;-115.568;2023-10-31T13:00:32;-4.90;65.94
69598;SHT31;70000;51.176;-115.568;2023-10-31T13:03:04;-4.93;66.07
69598;SHT31;70000;51.176;-115.568;2023-10-31T13:05:39;-4.95;66.20
69598;SHT31;70000;51.176;-115.568;2023-10-31T13:08:12;-4.95;66.29
69598;SHT31;70000;51.176;-115.568;2023-10-31T13:10:43;-4.99;66.30
69598;SHT31;70000;51.176;-115.568;2023-10-31T13:13:12;-5.04;66.37
69598;SHT31;70000;51.176;-115.568;2023-10-31T13:15:41;-5.09;66.48
69598;SHT31;70000;51.176;-115.568;2023-10-31T13:18:11;-5.09;66.58
69598;SHT31;70000;51.176;-115.568;2023-10-31T13:20:42;-5.10;66.60
69598;SHT31;70000;51.176;-115.568;2023-10-31T13:23:11;-5.11;66.54
69598;SHT31;70000;51.176;-115.568;2023-10-31T13:25:40;-5.13;66.46
69598;SHT31;70000;51.176;-115.568;2023-10-31T13:28:10;-5.16;66.45
69598;SHT31;70000;51.176;-115.568;2023-10-31T13:30:40;-5.18;66.55
69598;SHT31;70000;51.176;-115.568;2023-10-31T13:33:09;-5.20;66.62
69598;SHT31;70000;51.176;-115.568;2023-10-31T13:35:39;-5.23;66.70
69598;SHT31;70000;51.176;-115.568;2023-10-31T13:38:09;-5.29;66.77
69598;SHT31;70000;51.176;-115.568;2023-10-31T13:40:40;-5.32;66.89
69598;SHT31;70000;51.176;-115.568;2023-10-31T13:43:10;-5.33;67.00
69598;SHT31;70000;51.176;-115.568;2023-10-31T13:45:39;-5.36;66.93
69598;SHT31;70000;51.176;-115.568;2023-10-31T13:48:49;-5.41;66.98
69598;SHT31;70000;51.176;-115.568;2023-10-31T13:51:18;-5.40;66.98
69598;SHT31;70000;51.176;-115.568;2023-10-31T13:53:48;-5.42;66.97
69598;SHT31;70000;51.176;-115.568;2023-10-31T13:56:17;-5.43;67.00
69598;SHT31;70000;51.176;-115.568;2023-10-31T13:58:47;-5.46;67.02
69598;SHT31;70000;51.176;-115.568;2023-10-31T14:01:15;-5.48;67.09
69598;SHT31;70000;51.176;-115.568;2023-10-31T14:03:44;-5.49;67.11
69598;SHT31;70000;51.176;-115.568;2023-10-31T14:06:12;-5.50;67.14
69598;SHT31;70000;51.176;-115.568;2023-10-31T14:08:42;-5.49;67.17
69598;SHT31;70000;51.176;-115.568;2023-10-31T14:11:12;-5.49;67.17
69598;SHT31;70000;51.176;-115.568;2023-10-31T14:13:40;-5.49;67.10
69598;SHT31;70000;51.176;-115.568;2023-10-31T14:16:11;-5.51;67.12
69598;SHT31;70000;51.176;-115.568;2023-10-31T14:18:40;-5.54;67.28
69598;SHT31;70000;51.176;-115.568;2023-10-31T14:21:09;-5.59;67.50
69598;SHT31;70000;51.176;-115.568;2023-10-31T14:23:38;-5.62;67.70
69598;SHT31;70000;51.176;-115.568;2023-10-31T14:26:06;-5.63;67.73
69598;SHT31;70000;51.176;-115.568;2023-10-31T14:28:36;-5.60;67.80
69598;SHT31;70000;51.176;-115.568;2023-10-31T14:31:06;-5.61;67.84
69598;SHT31;70000;51.176;-115.568;2023-10-31T14:33:37;-5.62;67.92
69598;SHT31;70000;51.176;-115.568;2023-10-31T14:36:06;-5.63;68.04
69598;SHT31;70000;51.176;-115.568;2023-10-31T14:38:37;-5.63;68.14
69598;SHT31;70000;51.176;-115.568;2023-10-31T14:41:08;-5.62;68.07
69598;SHT31;70000;51.176;-115.568;2023-10-31T14:43:37;-5.63;67.95
69598;SHT31;70000;51.176;-115.568;2023-10-31T14:46:05;-5.64;67.75
69598;SHT31;70000;51.176;-115.568;2023-10-31T14:48:35;-5.66;67.71
69598;SHT31;70000;51.176;-115.568;2023-10-31T14:51:04;-5.67;67.70
69598;SHT31;70000;51.176;-115.568;2023-10-31T14:53:33;-5.68;67.72
69598;SHT31;70000;51.176;-115.568;2023-10-31T14:56:02;-5.74;67.76
69598;SHT31;70000;51.176;-115.568;2023-10-31T14:58:32;-5.74;67.84
69598;SHT31;70000;51.176;-115.568;2023-10-31T15:01:03;-5.79;67.73
69598;SHT31;70000;51.176;-115.568;2023-10-31T15:03:34;-5.79;67.86
69598;SHT31;70000;51.176;-115.568;2023-10-31T15:06:02;-5.73;67.86
69598;SHT31;70000;51.176;-115.568;2023-10-31T15:08:34;-5.72;67.79
69598;SHT31;70000;51.176;-115.568;2023-10-31T15:11:03;-5.69;67.86
69598;SHT31;70000;51.176;-115.568;2023-10-31T15:13:32;-5.68;67.70
69598;SHT31;70000;51.176;-115.568;2023-10-31T15:16:01;-5.72;67.73
69598;SHT31;70000;51.176;-115.568;2023-10-31T15:18:30;-5.72;67.87
69598;SHT31;70000;51.176;-115.568;2023-10-31T15:20:59;-5.68;67.89
69598;SHT31;70000;51.176;-115.568;2023-10-31T15:23:28;-5.65;67.73
69598;SHT31;70000;51.176;-115.568;2023-10-31T15:25:57;-5.65;67.62
69598;SHT31;70000;51.176;-115.568;2023-10-31T15:28:27;-5.70;67.62
69598;SHT31;70000;51.176;-115.568;2023-10-31T15:30:58;-5.78;67.55
69598;SHT31;70000;51.176;-115.568;2023-10-31T15:33:28;-5.80;67.59
69598;SHT31;70000;51.176;-115.568;2023-10-31T15:35:57;-5.84;67.63
69598;SHT31;70000;51.176;-115.568;2023-10-31T15:41:35;-5.87;67.70
69598;SHT31;70000;51.176;-115.568;2023-10-31T15:44:05;-5.86;67.71
69598;SHT31;70000;51.176;-115.568;2023-10-31T15:46:37;-5.85;67.82